Time;durP1;ratioP1;P1;durP2;ratioP2;P2;SDS_P1;SDS_P2;PMS_P1;PMS_P2;Temp;Humidity;BMP_temperature;BMP_pressure;BME280_temperature;BME280_humidity;BME280_pressure;Samples;Min_cycle;Max_cycle;Signal;HPM_P1;HPM_P2
2022/03/22 00:00:29;;;;;;;53.55;29.60;;;7.70;99.90;;;;;;4983343;28;20031;-87
2022/03/22 00:02:55;;;;;;;56.15;28.77;;;7.70;99.90;;;;;;4991515;28;20026;-87
2022/03/22 00:05:20;;;;;;;45.60;27.20;;;7.80;99.90;;;;;;4994906;28;20026;-87
2022/03/22 00:07:46;;;;;;;46.67;26.95;;;7.80;99.90;;;;;;4994970;28;20049;-87
2022/03/22 00:10:11;;;;;;;55.10;30.30;;;7.80;99.90;;;;;;4991819;28;20475;-87
2022/03/22 00:12:37;;;;;;;47.38;27.65;;;7.70;99.90;;;;;;4997685;28;20041;-87
2022/03/22 00:15:04;;;;;;;50.33;27.45;;;7.70;99.90;;;;;;4988346;28;20038;-87
2022/03/22 00:17:29;;;;;;;50.60;28.23;;;7.70;99.90;;;;;;4989460;28;20146;-87
2022/03/22 00:19:55;;;;;;;46.40;26.45;;;7.60;99.90;;;;;;4983453;28;20089;-87
2022/03/22 00:22:21;;;;;;;50.53;27.48;;;7.60;99.90;;;;;;4987091;28;20377;-87
2022/03/22 00:24:46;;;;;;;49.20;28.60;;;7.60;99.90;;;;;;4985941;28;20038;-87
2022/03/22 00:27:12;;;;;;;53.15;27.83;;;7.60;99.90;;;;;;4994113;28;20014;-87
2022/03/22 00:29:37;;;;;;;55.08;29.38;;;7.60;99.90;;;;;;4984238;28;20086;-87
2022/03/22 00:32:08;;;;;;;49.75;25.90;;;7.60;99.90;;;;;;4985718;28;20057;-87
2022/03/22 00:34:44;;;;;;;48.67;27.13;;;7.60;99.90;;;;;;4991624;28;20034;-87
2022/03/22 00:37:17;;;;;;;38.03;23.50;;;7.60;99.90;;;;;;4986558;28;20478;-87
2022/03/22 00:39:45;;;;;;;44.42;25.73;;;7.60;99.90;;;;;;4990978;28;20099;-87
2022/03/22 00:42:11;;;;;;;45.10;24.88;;;7.50;99.90;;;;;;4991234;28;20494;-87
2022/03/22 00:44:38;;;;;;;37.33;22.90;;;7.50;99.90;;;;;;4976782;28;20491;-87
2022/03/22 00:47:06;;;;;;;42.80;23.50;;;7.50;99.90;;;;;;4994147;28;20031;-88
2022/03/22 00:49:33;;;;;;;40.65;24.17;;;7.60;99.90;;;;;;4993108;28;20465;-86
2022/03/22 00:52:01;;;;;;;38.83;21.73;;;7.60;99.90;;;;;;4999738;28;20027;-87
2022/03/22 00:54:28;;;;;;;36.22;22.17;;;7.70;99.90;;;;;;4989650;28;20058;-87
2022/03/22 00:56:54;;;;;;;40.20;22.98;;;7.70;99.90;;;;;;4999821;28;20030;-87
2022/03/22 01:02:04;;;;;;;38.88;22.85;;;7.90;99.90;;;;;;4990965;28;20053;-87
2022/03/22 01:04:30;;;;;;;37.85;21.05;;;8.00;99.90;;;;;;4993596;28;20486;-87
2022/03/22 01:06:55;;;;;;;33.90;20.65;;;8.10;99.90;;;;;;4984876;28;20038;-87
2022/03/22 01:09:21;;;;;;;37.60;22.23;;;8.10;99.90;;;;;;4990270;28;20034;-87
2022/03/22 01:11:47;;;;;;;35.50;20.70;;;8.20;99.90;;;;;;4992637;28;20372;-87
2022/03/22 01:14:12;;;;;;;37.05;21.65;;;8.30;99.90;;;;;;4991830;28;20402;-87
2022/03/22 01:16:39;;;;;;;38.38;22.38;;;8.30;99.90;;;;;;4984077;28;20019;-87
2022/03/22 01:19:06;;;;;;;33.83;20.70;;;8.40;99.90;;;;;;4987982;28;20060;-87
2022/03/22 01:21:31;;;;;;;37.60;21.75;;;8.40;99.90;;;;;;4993312;28;20033;-87
2022/03/22 01:23:58;;;;;;;33.33;20.17;;;8.40;99.90;;;;;;4977275;28;20023;-87
2022/03/22 01:26:24;;;;;;;38.00;22.20;;;8.40;99.90;;;;;;4987778;28;20076;-87
2022/03/22 01:28:50;;;;;;;34.88;21.63;;;8.50;99.90;;;;;;4991105;28;20141;-87
2022/03/22 01:31:16;;;;;;;33.42;21.73;;;8.50;99.90;;;;;;4981226;28;20059;-87
2022/03/22 01:33:42;;;;;;;37.45;22.42;;;8.40;99.90;;;;;;4988938;28;20034;-87
2022/03/22 01:36:08;;;;;;;39.50;21.58;;;8.40;99.90;;;;;;4993220;28;20455;-87
2022/03/22 01:38:33;;;;;;;41.45;21.65;;;8.40;99.90;;;;;;4993030;28;20037;-87
2022/03/22 01:40:59;;;;;;;33.13;20.83;;;8.40;99.90;;;;;;4990162;28;20045;-88
2022/03/22 01:43:25;;;;;;;41.03;23.05;;;8.40;99.90;;;;;;4985027;28;20034;-87
2022/03/22 01:45:51;;;;;;;36.38;21.08;;;8.40;99.90;;;;;;4991040;28;20117;-87
2022/03/22 01:48:16;;;;;;;39.58;21.30;;;8.40;99.90;;;;;;4988838;28;20098;-87
2022/03/22 01:50:43;;;;;;;33.85;20.25;;;8.40;99.90;;;;;;4984406;28;20033;-87
2022/03/22 01:53:10;;;;;;;35.38;20.33;;;8.40;99.90;;;;;;4985318;28;20117;-87
2022/03/22 01:55:36;;;;;;;37.85;21.10;;;8.40;99.90;;;;;;4992166;28;20045;-87
2022/03/22 01:58:03;;;;;;;34.47;21.27;;;8.40;99.90;;;;;;4989936;28;20023;-87
2022/03/22 02:00:29;;;;;;;40.47;22.10;;;8.40;99.90;;;;;;4982553;28;20042;-87
2022/03/22 02:05:55;;;;;;;36.42;21.50;;;8.40;99.90;;;;;;4994363;28;20076;-87
2022/03/22 02:08:24;;;;;;;39.50;23.17;;;8.30;99.90;;;;;;4986246;28;20037;-87
2022/03/22 02:10:50;;;;;;;42.20;21.42;;;8.30;99.90;;;;;;4979952;28;20479;-87
2022/03/22 02:13:16;;;;;;;34.13;21.65;;;8.30;99.90;;;;;;4992378;28;20018;-87
2022/03/22 02:15:45;;;;;;;39.38;23.58;;;8.20;99.90;;;;;;4972938;28;20379;-87
2022/03/22 02:18:11;;;;;;;36.63;22.13;;;8.20;99.90;;;;;;4987356;28;20030;-87
2022/03/22 02:20:37;;;;;;;36.58;21.92;;;8.20;99.90;;;;;;4985610;28;20483;-87
2022/03/22 02:23:41;;;;;;;34.83;21.98;;;8.10;99.90;;;;;;4980819;28;20026;-87
2022/03/22 02:26:07;;;;;;;36.25;21.55;;;8.10;99.90;;;;;;4986088;28;20045;-87
2022/03/22 02:28:32;;;;;;;36.08;21.13;;;8.00;99.90;;;;;;4988929;28;20030;-87
2022/03/22 02:30:58;;;;;;;36.28;21.90;;;8.00;99.90;;;;;;4985858;28;20367;-87
2022/03/22 02:33:23;;;;;;;43.45;23.23;;;8.00;99.90;;;;;;4991804;28;20037;-87
2022/03/22 02:35:49;;;;;;;33.40;21.30;;;7.90;99.90;;;;;;4987920;28;20117;-87
2022/03/22 02:38:15;;;;;;;39.83;22.80;;;7.90;99.90;;;;;;4986238;28;20022;-87
2022/03/22 02:40:40;;;;;;;35.78;21.67;;;7.90;99.90;;;;;;4983254;28;20081;-87
2022/03/22 02:43:06;;;;;;;39.13;22.85;;;7.90;99.90;;;;;;4988173;28;20153;-87
2022/03/22 02:45:32;;;;;;;38.33;22.35;;;7.90;99.90;;;;;;4992134;28;20490;-87
2022/03/22 02:47:58;;;;;;;35.47;21.77;;;7.80;99.90;;;;;;4991946;28;20108;-87
2022/03/22 02:50:24;;;;;;;32.85;20.95;;;7.80;99.90;;;;;;4982430;28;20495;-87
2022/03/22 02:52:49;;;;;;;32.67;21.17;;;7.80;99.90;;;;;;4978483;28;20054;-87
2022/03/22 02:55:15;;;;;;;36.50;22.42;;;7.80;99.90;;;;;;4978053;28;20066;-86
2022/03/22 02:57:42;;;;;;;39.33;23.77;;;7.80;99.90;;;;;;4991013;28;20487;-87
2022/03/22 03:00:10;;;;;;;36.65;21.67;;;7.70;99.90;;;;;;4991585;28;20128;-86
2022/03/22 03:02:50;;;;;;;35.42;20.55;;;7.70;99.90;;;;;;4985652;28;20027;-87
2022/03/22 03:05:17;;;;;;;35.72;21.52;;;7.70;99.90;;;;;;4989326;28;20030;-87
2022/03/22 03:07:43;;;;;;;36.00;22.73;;;7.60;99.90;;;;;;4988414;28;20430;-86
2022/03/22 03:10:09;;;;;;;34.45;20.33;;;7.50;99.90;;;;;;4987078;28;20030;-87
2022/03/22 03:12:35;;;;;;;38.30;20.77;;;7.50;99.90;;;;;;4972828;28;20487;-87
2022/03/22 03:15:02;;;;;;;39.78;23.02;;;7.50;99.90;;;;;;4986762;28;20050;-87
2022/03/22 03:17:27;;;;;;;37.75;21.40;;;7.40;99.90;;;;;;4981224;28;20022;-87
2022/03/22 03:19:53;;;;;;;39.50;22.75;;;7.40;99.90;;;;;;4984650;28;20467;-85
2022/03/22 03:22:19;;;;;;;39.75;21.95;;;7.30;99.90;;;;;;4988108;28;20038;-87
2022/03/22 03:24:44;;;;;;;35.10;20.63;;;7.20;99.90;;;;;;4996713;28;20117;-87
2022/03/22 03:27:10;;;;;;;37.80;22.27;;;7.20;99.90;;;;;;4988227;28;20122;-87
2022/03/22 03:29:35;;;;;;;41.70;23.80;;;7.20;99.90;;;;;;4991552;28;20033;-87
2022/03/22 03:32:01;;;;;;;38.65;23.13;;;7.20;99.90;;;;;;4994988;28;20030;-86
2022/03/22 03:34:26;;;;;;;37.00;21.80;;;7.20;99.90;;;;;;4977824;28;20542;-87
2022/03/22 03:36:52;;;;;;;40.20;24.30;;;7.10;99.90;;;;;;4991441;28;20046;-87
2022/03/22 03:39:18;;;;;;;39.50;22.70;;;7.10;99.90;;;;;;4991840;28;20022;-87
2022/03/22 03:41:59;;;;;;;40.10;23.33;;;7.10;99.90;;;;;;4994727;28;20475;-86
2022/03/22 03:47:13;;;;;;;47.55;22.70;;;7.00;99.90;;;;;;4980351;28;20049;-87
2022/03/22 03:49:45;;;;;;;38.63;23.52;;;7.00;99.90;;;;;;4989943;28;20022;-87
2022/03/22 03:52:14;;;;;;;40.45;21.88;;;7.00;99.90;;;;;;4990767;28;20035;-86
2022/03/22 03:54:41;;;;;;;38.30;23.10;;;7.00;99.90;;;;;;4982647;28;20026;-87
2022/03/22 03:57:07;;;;;;;39.08;22.67;;;7.00;99.90;;;;;;4986532;28;20026;-87
2022/03/22 03:59:34;;;;;;;38.15;22.25;;;7.00;99.90;;;;;;4993449;28;20085;-87
2022/03/22 04:02:00;;;;;;;39.83;21.25;;;7.00;99.90;;;;;;4994724;28;20113;-86
2022/03/22 04:04:26;;;;;;;39.72;22.35;;;6.90;99.90;;;;;;4984450;28;20084;-86
2022/03/22 04:06:52;;;;;;;38.40;22.90;;;6.90;99.90;;;;;;4994517;28;20034;-86
2022/03/22 04:09:17;;;;;;;39.20;23.17;;;6.80;99.90;;;;;;4989567;28;20092;-86
2022/03/22 04:11:44;;;;;;;44.70;22.95;;;6.80;99.90;;;;;;4986830;28;20042;-87
2022/03/22 04:14:09;;;;;;;37.35;22.73;;;6.80;99.90;;;;;;4992486;28;20031;-86
2022/03/22 04:16:36;;;;;;;41.47;22.67;;;6.80;99.90;;;;;;4993802;28;20041;-86
2022/03/22 04:19:02;;;;;;;37.70;21.75;;;6.70;99.90;;;;;;4992442;28;20046;-87
2022/03/22 04:21:29;;;;;;;35.78;22.63;;;6.70;99.90;;;;;;4985319;28;20089;-86
2022/03/22 04:23:55;;;;;;;38.83;22.00;;;6.70;99.90;;;;;;4986800;28;20054;-87
2022/03/22 04:26:20;;;;;;;37.80;23.35;;;6.60;99.90;;;;;;4994275;28;20061;-86
2022/03/22 04:34:13;;;;;;;41.13;21.23;;;6.60;99.90;;;;;;4995972;28;20383;-86
2022/03/22 04:36:39;;;;;;;39.55;21.25;;;6.60;99.90;;;;;;4994261;28;20022;-87
2022/03/22 04:39:05;;;;;;;35.88;21.90;;;6.60;99.90;;;;;;4988633;28;20038;-87
2022/03/22 04:41:30;;;;;;;35.67;20.70;;;6.60;99.90;;;;;;4983425;28;20042;-88
2022/03/22 04:43:56;;;;;;;38.83;21.65;;;6.50;99.90;;;;;;4985226;28;20018;-87
2022/03/22 04:46:22;;;;;;;37.53;22.33;;;6.50;99.90;;;;;;4987766;28;20026;-86
2022/03/22 04:48:48;;;;;;;37.92;23.98;;;6.50;99.90;;;;;;4990750;28;20033;-87
2022/03/22 04:56:48;;;;;;;42.30;22.52;;;6.50;99.90;;;;;;4986418;28;20063;-86
2022/03/22 04:59:19;;;;;;;41.40;23.92;;;6.50;99.90;;;;;;4991374;28;20057;-87
2022/03/22 05:01:45;;;;;;;40.03;23.70;;;6.40;99.90;;;;;;4988996;28;20216;-87
2022/03/22 05:04:11;;;;;;;38.70;23.65;;;6.50;99.90;;;;;;4985205;28;20101;-87
2022/03/22 05:06:40;;;;;;;41.63;22.10;;;6.50;99.90;;;;;;4993559;28;20113;-87
2022/03/22 05:09:07;;;;;;;40.03;23.23;;;6.50;99.90;;;;;;4987480;28;20037;-87
2022/03/22 05:11:33;;;;;;;37.22;22.38;;;6.40;99.90;;;;;;4988949;28;20034;-87
2022/03/22 05:14:00;;;;;;;38.40;22.70;;;6.50;99.90;;;;;;4989779;28;20053;-86
2022/03/22 05:16:26;;;;;;;39.67;23.00;;;6.40;99.90;;;;;;4993773;28;20030;-87
2022/03/22 05:18:52;;;;;;;40.22;23.88;;;6.40;99.90;;;;;;4992936;28;20061;-87
2022/03/22 05:21:19;;;;;;;41.47;23.80;;;6.40;99.90;;;;;;4995024;28;20034;-87
2022/03/22 05:23:45;;;;;;;40.05;22.20;;;6.40;99.90;;;;;;4990712;28;20019;-87
2022/03/22 05:26:12;;;;;;;37.42;21.63;;;6.40;99.90;;;;;;4993278;28;20438;-87
2022/03/22 05:28:38;;;;;;;42.83;24.00;;;6.40;99.90;;;;;;4992845;28;20054;-87
2022/03/22 05:31:05;;;;;;;46.38;24.73;;;6.40;99.90;;;;;;4986119;28;20507;-86
2022/03/22 05:33:30;;;;;;;39.30;23.42;;;6.40;99.90;;;;;;4983029;28;20108;-87
2022/03/22 05:35:56;;;;;;;41.97;23.23;;;6.40;99.90;;;;;;4993378;28;20022;-86
2022/03/22 05:38:22;;;;;;;43.55;23.77;;;6.40;99.90;;;;;;4978629;28;20037;-86
2022/03/22 05:40:48;;;;;;;39.00;24.25;;;6.50;99.90;;;;;;4977840;28;20030;-87
2022/03/22 05:43:13;;;;;;;41.13;23.52;;;6.50;99.90;;;;;;4975145;28;20387;-87
2022/03/22 05:45:39;;;;;;;44.28;24.88;;;6.50;99.90;;;;;;4979632;28;20034;-87
2022/03/22 05:48:07;;;;;;;41.17;23.77;;;6.60;99.90;;;;;;4991613;28;20037;-86
2022/03/22 05:50:33;;;;;;;42.70;24.17;;;6.70;99.90;;;;;;4988902;28;20031;-87
2022/03/22 05:52:58;;;;;;;40.40;22.88;;;6.70;99.90;;;;;;5009314;28;20373;-86
2022/03/22 05:55:24;;;;;;;39.47;23.25;;;6.70;99.90;;;;;;4980218;28;20408;-86
2022/03/22 05:57:49;;;;;;;44.53;23.77;;;6.80;99.90;;;;;;4991223;28;20035;-86
2022/03/22 06:00:18;;;;;;;37.45;22.27;;;6.90;99.90;;;;;;4986563;28;20447;-86
2022/03/22 06:02:43;;;;;;;38.83;22.38;;;6.90;99.90;;;;;;4988032;28;20368;-87
2022/03/22 06:05:11;;;;;;;39.53;23.17;;;7.00;99.90;;;;;;4989697;28;20032;-87
2022/03/22 06:07:38;;;;;;;37.33;22.90;;;7.10;99.90;;;;;;4992162;28;20478;-87
2022/03/22 06:10:05;;;;;;;35.95;21.73;;;7.10;99.90;;;;;;4987452;28;20034;-87
2022/03/22 06:12:39;;;;;;;40.10;22.83;;;7.20;99.90;;;;;;4984141;28;20030;-87
2022/03/22 06:15:15;;;;;;;40.47;23.45;;;7.20;99.90;;;;;;4988884;28;20034;-87
2022/03/22 06:17:49;;;;;;;40.47;21.85;;;7.20;99.90;;;;;;4982464;28;20560;-88
2022/03/22 06:20:16;;;;;;;39.95;23.55;;;7.20;99.90;;;;;;5000384;28;20506;-88
2022/03/22 06:22:42;;;;;;;48.65;23.70;;;7.20;99.90;;;;;;4982488;28;20026;-88
2022/03/22 06:25:09;;;;;;;42.05;22.80;;;7.20;99.90;;;;;;4978252;28;20033;-88
2022/03/22 06:27:35;;;;;;;44.33;25.20;;;7.30;99.90;;;;;;4987202;28;20034;-88
2022/03/22 06:30:06;;;;;;;38.25;22.63;;;7.30;99.90;;;;;;4983231;28;20019;-88
2022/03/22 06:32:42;;;;;;;38.47;22.70;;;7.40;99.90;;;;;;4976805;28;20034;-88
2022/03/22 06:35:10;;;;;;;36.03;22.42;;;7.40;99.90;;;;;;4986058;28;20026;-88
2022/03/22 06:37:36;;;;;;;40.40;22.90;;;7.50;99.90;;;;;;4984887;28;20505;-89
2022/03/22 06:40:04;;;;;;;42.65;22.35;;;7.50;99.90;;;;;;4978761;28;20094;-88
2022/03/22 06:42:29;;;;;;;35.25;21.30;;;7.50;99.90;;;;;;4983696;28;20181;-89
2022/03/22 06:44:55;;;;;;;34.55;22.42;;;7.60;99.90;;;;;;4983673;28;20117;-89
2022/03/22 06:47:21;;;;;;;38.08;22.63;;;7.60;99.90;;;;;;4986366;28;20022;-89
2022/03/22 06:49:47;;;;;;;36.50;21.25;;;7.70;99.90;;;;;;4990771;28;20022;-89
2022/03/22 06:52:12;;;;;;;40.38;22.02;;;7.80;99.90;;;;;;4996525;28;20030;-88
2022/03/22 06:54:38;;;;;;;39.08;22.33;;;7.80;99.90;;;;;;4996645;28;20023;-88
2022/03/22 06:57:05;;;;;;;37.88;22.50;;;7.90;99.90;;;;;;4986059;28;20034;-88
2022/03/22 06:59:30;;;;;;;41.70;24.80;;;8.00;99.90;;;;;;4987306;28;20038;-88
2022/03/22 07:01:56;;;;;;;38.00;22.40;;;8.00;99.90;;;;;;4986245;28;20549;-87
2022/03/22 07:04:21;;;;;;;36.05;22.52;;;8.10;99.90;;;;;;4984665;28;20054;-88
2022/03/22 07:06:47;;;;;;;35.35;20.80;;;8.20;99.90;;;;;;4991078;28;20029;-88
2022/03/22 07:09:12;;;;;;;33.13;21.67;;;8.30;99.90;;;;;;4994740;28;20022;-88
2022/03/22 07:11:49;;;;;;;36.30;21.63;;;8.40;99.90;;;;;;4991295;28;20027;-87
2022/03/22 07:14:18;;;;;;;36.85;21.15;;;8.50;99.90;;;;;;4992418;28;20034;-88
2022/03/22 07:16:47;;;;;;;36.90;23.05;;;8.60;99.90;;;;;;4984659;28;20465;-88
2022/03/22 07:19:13;;;;;;;37.22;22.92;;;8.70;99.90;;;;;;4980668;28;20039;-87
2022/03/22 07:21:41;;;;;;;34.00;22.00;;;8.80;99.90;;;;;;4980882;28;20058;-87
2022/03/22 07:24:07;;;;;;;40.65;23.50;;;9.00;99.90;;;;;;4985799;28;20077;-88
2022/03/22 07:26:33;;;;;;;39.88;21.92;;;9.10;99.90;;;;;;4990682;28;20034;-88
2022/03/22 07:28:58;;;;;;;36.28;22.23;;;9.20;99.90;;;;;;4994724;28;20022;-88
2022/03/22 07:31:24;;;;;;;37.50;22.48;;;9.30;99.90;;;;;;4983083;28;20479;-86
2022/03/22 07:33:49;;;;;;;41.33;22.23;;;9.50;99.90;;;;;;4990977;28;20080;-86
2022/03/22 07:36:15;;;;;;;33.22;21.80;;;9.60;99.90;;;;;;4989555;28;20030;-86
2022/03/22 07:38:41;;;;;;;33.83;21.08;;;9.70;99.90;;;;;;4978781;28;20026;-86
2022/03/22 07:41:07;;;;;;;33.05;20.77;;;9.80;99.90;;;;;;4994298;28;20042;-87
2022/03/22 07:43:33;;;;;;;33.47;20.80;;;9.80;99.90;;;;;;4989796;28;21090;-87
2022/03/22 07:45:58;;;;;;;37.03;21.52;;;10.00;99.90;;;;;;4989231;28;20067;-86
2022/03/22 07:48:24;;;;;;;36.75;21.48;;;10.10;99.90;;;;;;4985695;28;20014;-87
2022/03/22 07:53:33;;;;;;;36.38;20.95;;;10.30;99.90;;;;;;4988145;28;20117;-87
2022/03/22 07:55:59;;;;;;;37.17;20.70;;;10.40;99.90;;;;;;4995681;28;20476;-87
2022/03/22 07:58:24;;;;;;;31.58;19.90;;;10.50;99.90;;;;;;4991211;28;20034;-87
2022/03/22 08:00:50;;;;;;;34.42;20.75;;;10.60;99.90;;;;;;4993716;28;20101;-87
2022/03/22 08:03:18;;;;;;;32.35;20.27;;;10.70;99.90;;;;;;4990037;28;20549;-87
2022/03/22 08:05:47;;;;;;;33.70;21.02;;;10.80;99.90;;;;;;4994689;28;20038;-87
2022/03/22 08:08:14;;;;;;;33.45;20.98;;;10.90;99.90;;;;;;4993961;28;20018;-87
2022/03/22 08:10:40;;;;;;;38.22;20.30;;;11.00;99.90;;;;;;4994836;28;20038;-87
2022/03/22 08:13:06;;;;;;;37.05;21.10;;;11.10;99.90;;;;;;4993047;28;20430;-87
2022/03/22 08:15:32;;;;;;;32.90;20.95;;;11.20;99.90;;;;;;5007310;28;20038;-86
2022/03/22 08:17:58;;;;;;;35.47;20.15;;;11.20;99.60;;;;;;4987275;28;20041;-86
2022/03/22 08:20:27;;;;;;;33.83;20.88;;;11.30;99.30;;;;;;4992303;28;20058;-87
2022/03/22 08:23:04;;;;;;;33.55;20.35;;;11.30;99.10;;;;;;4978780;28;20510;-88
2022/03/22 08:25:48;;;;;;;35.63;21.58;;;11.40;98.70;;;;;;4979892;28;20049;-87
2022/03/22 08:28:14;;;;;;;39.58;20.00;;;11.50;98.50;;;;;;4991020;28;20094;-87
2022/03/22 08:30:40;;;;;;;37.53;19.88;;;11.60;98.20;;;;;;4991667;28;20109;-87
2022/03/22 08:33:07;;;;;;;33.47;20.80;;;11.70;97.90;;;;;;4987219;28;20052;-87
2022/03/22 08:35:34;;;;;;;56.72;23.80;;;11.80;97.70;;;;;;4992567;28;20227;-86
2022/03/22 08:37:59;;;;;;;30.30;19.23;;;12.00;97.40;;;;;;4985915;28;20045;-87
2022/03/22 08:40:25;;;;;;;32.63;19.80;;;12.10;97.10;;;;;;4983131;28;20042;-87
2022/03/22 08:42:53;;;;;;;32.47;20.67;;;12.20;96.70;;;;;;4994194;28;20031;-87
2022/03/22 08:45:20;;;;;;;33.22;21.25;;;12.40;96.30;;;;;;4994264;28;20030;-87
2022/03/22 08:47:47;;;;;;;30.38;20.73;;;12.50;96.20;;;;;;4990581;28;20050;-86
2022/03/22 08:50:15;;;;;;;34.90;21.15;;;12.60;95.90;;;;;;4982120;28;20053;-87
2022/03/22 08:52:41;;;;;;;33.70;19.73;;;12.70;95.60;;;;;;4990714;28;20121;-87
2022/03/22 08:55:11;;;;;;;35.22;20.42;;;12.90;95.00;;;;;;4976588;28;20026;-87
2022/03/22 08:57:37;;;;;;;32.40;19.60;;;13.00;94.40;;;;;;4983599;28;20023;-87
2022/03/22 09:00:09;;;;;;;31.80;19.52;;;13.00;94.10;;;;;;4987578;28;20454;-87
2022/03/22 09:02:36;;;;;;;33.75;20.20;;;13.20;93.60;;;;;;4985790;28;20025;-87
2022/03/22 09:07:47;;;;;;;30.25;19.42;;;13.40;93.30;;;;;;4983076;28;20086;-87
2022/03/22 09:10:14;;;;;;;32.28;19.75;;;13.60;92.70;;;;;;4996315;28;20124;-87
2022/03/22 09:12:40;;;;;;;29.55;18.73;;;13.70;92.70;;;;;;4992761;28;20483;-87
2022/03/22 09:15:06;;;;;;;32.28;19.70;;;13.90;92.30;;;;;;4990389;28;20119;-88
2022/03/22 09:17:32;;;;;;;33.45;19.48;;;14.00;92.00;;;;;;4993601;28;20041;-88
2022/03/22 09:19:57;;;;;;;29.75;18.95;;;14.10;91.90;;;;;;4992680;28;20579;-87
2022/03/22 09:22:23;;;;;;;30.75;19.55;;;14.20;91.60;;;;;;4999060;28;20052;-89
2022/03/22 09:24:48;;;;;;;31.92;20.38;;;14.40;91.20;;;;;;4993151;28;20022;-89
2022/03/22 09:27:14;;;;;;;30.58;20.70;;;14.60;90.60;;;;;;4993380;28;20026;-89
2022/03/22 09:29:40;;;;;;;34.00;19.77;;;14.60;90.20;;;;;;4989867;28;20026;-88
2022/03/22 09:32:05;;;;;;;31.08;18.75;;;14.80;89.20;;;;;;4989728;28;20448;-89
2022/03/22 09:34:32;;;;;;;30.23;18.88;;;14.90;88.30;;;;;;4982753;28;20038;-89
2022/03/22 09:36:59;;;;;;;31.65;21.02;;;15.00;87.80;;;;;;4985402;28;20043;-88
2022/03/22 09:39:24;;;;;;;32.60;18.98;;;15.10;86.70;;;;;;4977582;28;20022;-89
2022/03/22 09:41:51;;;;;;;29.52;19.52;;;15.10;86.00;;;;;;4985181;28;20035;-89
2022/03/22 09:44:18;;;;;;;33.60;19.98;;;15.20;85.00;;;;;;4982739;28;20077;-89
2022/03/22 09:46:49;;;;;;;31.45;19.40;;;15.30;84.60;;;;;;4986121;28;20544;-89
2022/03/22 09:49:16;;;;;;;31.42;19.38;;;15.50;84.20;;;;;;4993386;28;20076;-88
2022/03/22 09:51:47;;;;;;;29.55;19.15;;;15.60;83.50;;;;;;4992567;28;20116;-87
2022/03/22 09:54:18;;;;;;;30.88;19.20;;;15.60;83.20;;;;;;4989283;28;20044;-87
2022/03/22 09:56:45;;;;;;;32.72;19.23;;;15.80;82.20;;;;;;4988326;28;20027;-86
2022/03/22 09:59:11;;;;;;;33.30;20.17;;;15.90;81.30;;;;;;4992093;28;20113;-87
2022/03/22 10:01:38;;;;;;;29.42;19.02;;;15.90;80.90;;;;;;4987635;28;20046;-90
2022/03/22 10:04:13;;;;;;;30.23;18.48;;;16.00;81.10;;;;;;4989141;28;20028;-90
2022/03/22 10:06:50;;;;;;;30.60;18.48;;;16.10;79.60;;;;;;5000631;28;20042;-90
2022/03/22 10:09:30;;;;;;;25.83;18.38;;;16.20;79.00;;;;;;4991984;28;20081;-90
2022/03/22 10:11:55;;;;;;;28.73;18.15;;;16.30;78.60;;;;;;4983902;28;20026;-90
2022/03/22 10:14:32;;;;;;;30.38;19.05;;;16.30;78.00;;;;;;4993070;28;20045;-91
2022/03/22 10:16:58;;;;;;;33.80;20.10;;;16.40;77.50;;;;;;4993662;28;20031;-90
2022/03/22 10:19:25;;;;;;;29.25;19.38;;;16.50;76.40;;;;;;4990487;28;20495;-90
2022/03/22 10:21:53;;;;;;;32.72;20.45;;;16.50;76.00;;;;;;4977359;28;20046;-90
2022/03/22 10:24:19;;;;;;;30.98;19.10;;;16.60;76.10;;;;;;4988416;28;20041;-90
2022/03/22 10:26:46;;;;;;;32.47;18.73;;;16.70;75.50;;;;;;4990922;28;20026;-90
2022/03/22 10:29:13;;;;;;;31.85;19.25;;;16.80;74.20;;;;;;4993977;28;20046;-89
2022/03/22 10:31:40;;;;;;;30.60;18.58;;;16.90;73.30;;;;;;5000719;28;20022;-90
2022/03/22 10:34:10;;;;;;;35.92;20.13;;;16.90;72.30;;;;;;4997580;28;20026;-90
2022/03/22 10:36:38;;;;;;;37.55;24.38;;;17.00;71.00;;;;;;4985648;28;20022;-90
2022/03/22 10:39:09;;;;;;;34.60;23.42;;;17.00;70.50;;;;;;4996734;28;20030;-90
2022/03/22 10:41:43;;;;;;;32.70;21.20;;;17.10;70.40;;;;;;4997033;28;20066;-90
2022/03/22 10:44:11;;;;;;;33.53;20.85;;;17.20;70.50;;;;;;4987810;28;20509;-89
2022/03/22 10:46:44;;;;;;;34.05;20.52;;;17.20;69.40;;;;;;4986214;28;20031;-90
2022/03/22 10:49:11;;;;;;;36.50;20.73;;;17.20;69.60;;;;;;4996646;28;20049;-90
2022/03/22 10:51:45;;;;;;;26.83;17.90;;;17.30;69.30;;;;;;4995804;28;20038;-89
2022/03/22 10:54:15;;;;;;;33.00;19.63;;;17.30;69.30;;;;;;4990611;28;20066;-89
2022/03/22 10:56:49;;;;;;;28.80;17.30;;;17.40;69.10;;;;;;4993631;28;20015;-88
2022/03/22 10:59:21;;;;;;;27.55;18.23;;;17.40;68.90;;;;;;4996641;28;20030;-86
2022/03/22 11:01:48;;;;;;;34.83;19.03;;;17.50;69.10;;;;;;4993052;28;20042;-84
2022/03/22 11:04:19;;;;;;;32.42;18.60;;;17.60;68.40;;;;;;4995963;28;20078;-86
2022/03/22 11:06:48;;;;;;;27.13;17.67;;;17.60;68.00;;;;;;4992909;28;20030;-84
2022/03/22 11:09:16;;;;;;;31.88;19.08;;;17.70;68.10;;;;;;4994650;28;20070;-85
2022/03/22 11:11:43;;;;;;;35.05;19.80;;;17.80;67.40;;;;;;4991361;28;20018;-86
2022/03/22 11:14:11;;;;;;;31.10;18.55;;;17.90;65.90;;;;;;4984414;28;20030;-86
2022/03/22 11:16:36;;;;;;;31.17;18.70;;;17.90;65.80;;;;;;4997472;28;20018;-86
2022/03/22 11:19:04;;;;;;;32.05;17.95;;;18.00;65.50;;;;;;4992534;28;20072;-85
2022/03/22 11:21:31;;;;;;;32.05;18.23;;;18.00;65.20;;;;;;4995439;28;20038;-85
2022/03/22 11:24:09;;;;;;;31.65;17.83;;;18.10;64.80;;;;;;4983844;28;20022;-86
2022/03/22 11:26:44;;;;;;;29.20;18.42;;;18.30;65.10;;;;;;4991235;28;20026;-86
2022/03/22 11:29:19;;;;;;;31.75;18.25;;;18.30;64.20;;;;;;5011841;28;20033;-85
2022/03/22 11:34:09;;;;;;;29.25;17.90;;;18.40;63.90;;;;;;4985494;28;20121;-85
2022/03/22 11:34:33;;;;;;;30.98;18.58;;;18.40;63.60;;;;;;4994613;28;20031;-85
2022/03/22 11:37:00;;;;;;;30.67;18.33;;;18.40;63.90;;;;;;4986934;28;20118;-86
2022/03/22 11:42:18;;;;;;;28.85;18.77;;;18.60;64.60;;;;;;4993276;28;20113;-86
2022/03/22 11:44:58;;;;;;;31.65;18.52;;;18.60;64.00;;;;;;4994653;28;20026;-86
2022/03/22 11:47:25;;;;;;;27.90;18.02;;;18.70;63.70;;;;;;5001857;28;20022;-85
2022/03/22 11:49:56;;;;;;;31.50;17.60;;;18.80;63.20;;;;;;4988340;28;20395;-87
2022/03/22 11:52:44;;;;;;;30.83;18.13;;;18.90;63.20;;;;;;4995374;28;20041;-87
2022/03/22 11:55:16;;;;;;;31.60;18.05;;;19.00;62.90;;;;;;5003242;28;20056;-87
2022/03/22 11:57:53;;;;;;;29.40;18.58;;;19.00;63.00;;;;;;4994790;28;20581;-86
2022/03/22 12:00:38;;;;;;;32.38;18.02;;;19.20;62.60;;;;;;4994904;28;20084;-86
2022/03/22 12:03:08;;;;;;;29.90;18.35;;;19.20;62.90;;;;;;4986143;28;20085;-86
2022/03/22 12:05:34;;;;;;;32.33;20.00;;;19.30;63.00;;;;;;4994833;28;20076;-86
2022/03/22 12:08:07;;;;;;;33.72;20.45;;;19.40;61.10;;;;;;4994375;28;20490;-87
2022/03/22 12:10:33;;;;;;;31.85;18.73;;;19.30;60.10;;;;;;4994575;28;20023;-86
2022/03/22 12:12:58;;;;;;;33.10;19.13;;;19.30;60.00;;;;;;4992545;28;20097;-86
2022/03/22 12:15:25;;;;;;;31.75;21.25;;;19.20;59.40;;;;;;4992965;28;20479;-86
2022/03/22 12:17:51;;;;;;;33.42;19.85;;;19.20;59.00;;;;;;4994209;28;20494;-86
2022/03/22 12:20:22;;;;;;;32.03;19.55;;;19.20;59.60;;;;;;4983353;28;20142;-86
2022/03/22 12:22:58;;;;;;;30.67;18.33;;;19.20;59.00;;;;;;4983219;28;20018;-87
2022/03/22 12:25:25;;;;;;;30.25;17.33;;;19.30;59.90;;;;;;4994457;28;20030;-86
2022/03/22 12:28:01;;;;;;;28.67;16.77;;;19.40;59.30;;;;;;4994302;28;20546;-86
2022/03/22 12:30:32;;;;;;;30.10;18.15;;;19.50;58.80;;;;;;4983800;28;20053;-86
2022/03/22 12:33:04;;;;;;;28.30;17.75;;;19.60;58.00;;;;;;5005621;28;20479;-86
2022/03/22 12:35:30;;;;;;;28.98;17.42;;;19.50;57.50;;;;;;4997754;28;20399;-87
2022/03/22 12:37:57;;;;;;;29.80;18.00;;;19.60;57.80;;;;;;4994028;28;20031;-86
2022/03/22 12:40:24;;;;;;;35.47;18.90;;;19.60;57.00;;;;;;4989527;28;20113;-86
2022/03/22 12:42:51;;;;;;;28.50;16.63;;;19.60;57.10;;;;;;4987352;28;20044;-87
2022/03/22 12:45:18;;;;;;;26.83;17.23;;;19.80;57.00;;;;;;4994667;28;20026;-87
2022/03/22 12:47:45;;;;;;;28.55;17.52;;;19.90;56.90;;;;;;4993347;28;20506;-87
2022/03/22 12:50:13;;;;;;;30.30;17.20;;;20.00;56.20;;;;;;4993741;28;20057;-87
2022/03/22 12:52:40;;;;;;;23.63;15.40;;;20.10;56.30;;;;;;4993571;28;20054;-86
2022/03/22 12:55:08;;;;;;;26.10;15.18;;;20.20;56.20;;;;;;4994150;28;20030;-87
2022/03/22 12:57:34;;;;;;;27.52;15.82;;;20.30;55.50;;;;;;4991141;28;20034;-87
2022/03/22 13:00:00;;;;;;;27.27;16.00;;;20.40;54.50;;;;;;4994131;28;20038;-87
2022/03/22 13:02:27;;;;;;;31.98;18.70;;;20.30;54.90;;;;;;4996431;28;20048;-87